sensor_id;sensor_type;location;lat;lon;timestamp;pressure;altitude;pressure_sealevel;temperature;humidity
61488;BME280;47351;53.326;-6.298;2023-04-10T00:03:17;100282.55;;;10.24;79.06
61488;BME280;47351;53.326;-6.298;2023-04-10T00:06:21;100282.73;;;10.15;79.01
61488;BME280;47351;53.326;-6.298;2023-04-10T00:09:16;100281.17;;;10.07;79.13
61488;BME280;47351;53.326;-6.298;2023-04-10T00:12:09;100282.53;;;9.97;79.17
61488;BME280;47351;53.326;-6.298;2023-04-10T00:15:05;100280.04;;;9.88;79.26
61488;BME280;47351;53.326;-6.298;2023-04-10T00:18:16;100275.31;;;9.80;79.74
61488;BME280;47351;53.326;-6.298;2023-04-10T00:21:11;100273.30;;;9.74;80.26
61488;BME280;47351;53.326;-6.298;2023-04-10T00:24:22;100272.68;;;9.68;80.68
61488;BME280;47351;53.326;-6.298;2023-04-10T00:27:21;100278.08;;;9.62;81.04
61488;BME280;47351;53.326;-6.298;2023-04-10T00:30:26;100276.95;;;9.56;81.16
61488;BME280;47351;53.326;-6.298;2023-04-10T00:33:19;100273.23;;;9.51;81.34
61488;BME280;47351;53.326;-6.298;2023-04-10T00:36:10;100280.56;;;9.46;81.42
61488;BME280;47351;53.326;-6.298;2023-04-10T00:39:22;100278.06;;;9.39;81.71
61488;BME280;47351;53.326;-6.298;2023-04-10T00:42:16;100273.66;;;9.34;81.85
61488;BME280;47351;53.326;-6.298;2023-04-10T00:45:27;100272.33;;;9.29;82.08
61488;BME280;47351;53.326;-6.298;2023-04-10T00:48:40;100269.92;;;9.25;82.33
61488;BME280;47351;53.326;-6.298;2023-04-10T00:51:52;100268.38;;;9.22;82.39
61488;BME280;47351;53.326;-6.298;2023-04-10T00:54:49;100265.44;;;9.22;82.54
61488;BME280;47351;53.326;-6.298;2023-04-10T00:57:59;100262.83;;;9.21;82.60
61488;BME280;47351;53.326;-6.298;2023-04-10T01:01:10;100258.39;;;9.21;82.64
61488;BME280;47351;53.326;-6.298;2023-04-10T01:04:21;100254.22;;;9.22;82.70
61488;BME280;47351;53.326;-6.298;2023-04-10T01:07:42;100251.35;;;9.22;82.64
61488;BME280;47351;53.326;-6.298;2023-04-10T01:10:57;100246.30;;;9.22;82.53
61488;BME280;47351;53.326;-6.298;2023-04-10T01:14:14;100244.16;;;9.22;82.44
61488;BME280;47351;53.326;-6.298;2023-04-10T01:17:27;100246.61;;;9.23;82.49
61488;BME280;47351;53.326;-6.298;2023-04-10T01:20:33;100238.59;;;9.23;82.57
61488;BME280;47351;53.326;-6.298;2023-04-10T01:23:51;100230.90;;;9.23;82.71
61488;BME280;47351;53.326;-6.298;2023-04-10T01:30:20;100227.23;;;9.23;83.19
61488;BME280;47351;53.326;-6.298;2023-04-10T01:33:34;100225.36;;;9.23;83.32
61488;BME280;47351;53.326;-6.298;2023-04-10T01:36:39;100225.79;;;9.24;83.53
61488;BME280;47351;53.326;-6.298;2023-04-10T01:39:56;100231.23;;;9.27;83.64
61488;BME280;47351;53.326;-6.298;2023-04-10T01:43:08;100224.13;;;9.30;83.73
61488;BME280;47351;53.326;-6.298;2023-04-10T01:46:20;100222.06;;;9.35;83.77
61488;BME280;47351;53.326;-6.298;2023-04-10T01:49:32;100216.77;;;9.38;83.72
61488;BME280;47351;53.326;-6.298;2023-04-10T01:52:44;100214.71;;;9.40;83.57
61488;BME280;47351;53.326;-6.298;2023-04-10T01:55:55;100210.34;;;9.41;83.40
61488;BME280;47351;53.326;-6.298;2023-04-10T01:59:07;100214.69;;;9.41;83.16
61488;BME280;47351;53.326;-6.298;2023-04-10T02:02:18;100208.02;;;9.39;82.90
61488;BME280;47351;53.326;-6.298;2023-04-10T02:05:31;100206.09;;;9.38;82.80
61488;BME280;47351;53.326;-6.298;2023-04-10T02:08:38;100201.23;;;9.35;82.82
61488;BME280;47351;53.326;-6.298;2023-04-10T02:11:37;100206.14;;;9.32;82.88
61488;BME280;47351;53.326;-6.298;2023-04-10T02:14:43;100209.98;;;9.31;82.98
61488;BME280;47351;53.326;-6.298;2023-04-10T02:17:48;100210.18;;;9.31;82.95
61488;BME280;47351;53.326;-6.298;2023-04-10T02:20:56;100205.17;;;9.31;82.95
61488;BME280;47351;53.326;-6.298;2023-04-10T02:24:07;100202.56;;;9.31;83.05
61488;BME280;47351;53.326;-6.298;2023-04-10T02:27:26;100194.45;;;9.29;83.04
61488;BME280;47351;53.326;-6.298;2023-04-10T02:30:32;100182.58;;;9.29;83.20
61488;BME280;47351;53.326;-6.298;2023-04-10T02:33:43;100181.02;;;9.29;83.22
61488;BME280;47351;53.326;-6.298;2023-04-10T02:36:54;100187.33;;;9.28;83.15
61488;BME280;47351;53.326;-6.298;2023-04-10T02:40:05;100191.20;;;9.26;83.19
61488;BME280;47351;53.326;-6.298;2023-04-10T02:43:16;100198.69;;;9.27;83.22
61488;BME280;47351;53.326;-6.298;2023-04-10T02:46:27;100194.37;;;9.29;83.21
61488;BME280;47351;53.326;-6.298;2023-04-10T02:49:38;100194.26;;;9.34;83.31
61488;BME280;47351;53.326;-6.298;2023-04-10T02:52:43;100188.73;;;9.39;83.28
61488;BME280;47351;53.326;-6.298;2023-04-10T02:55:56;100180.80;;;9.44;83.18
61488;BME280;47351;53.326;-6.298;2023-04-10T02:59:01;100176.80;;;9.48;83.18
61488;BME280;47351;53.326;-6.298;2023-04-10T03:02:12;100175.57;;;9.52;83.09
61488;BME280;47351;53.326;-6.298;2023-04-10T03:05:23;100173.83;;;9.53;82.91
61488;BME280;47351;53.326;-6.298;2023-04-10T03:08:33;100174.29;;;9.52;82.80
61488;BME280;47351;53.326;-6.298;2023-04-10T03:11:44;100166.17;;;9.51;82.83
61488;BME280;47351;53.326;-6.298;2023-04-10T03:14:45;100168.95;;;9.50;82.90
61488;BME280;47351;53.326;-6.298;2023-04-10T03:17:57;100168.17;;;9.50;82.84
61488;BME280;47351;53.326;-6.298;2023-04-10T03:21:08;100159.92;;;9.51;82.90
61488;BME280;47351;53.326;-6.298;2023-04-10T03:24:12;100157.33;;;9.50;83.04
61488;BME280;47351;53.326;-6.298;2023-04-10T03:27:17;100162.89;;;9.47;83.04
61488;BME280;47351;53.326;-6.298;2023-04-10T03:30:29;100163.28;;;9.41;83.01
61488;BME280;47351;53.326;-6.298;2023-04-10T03:33:39;100161.73;;;9.36;83.09
61488;BME280;47351;53.326;-6.298;2023-04-10T03:36:51;100167.47;;;9.31;83.06
61488;BME280;47351;53.326;-6.298;2023-04-10T03:39:52;100164.65;;;9.25;83.07
61488;BME280;47351;53.326;-6.298;2023-04-10T03:43:05;100157.95;;;9.19;83.14
61488;BME280;47351;53.326;-6.298;2023-04-10T03:46:16;100154.03;;;9.14;83.24
61488;BME280;47351;53.326;-6.298;2023-04-10T03:49:27;100155.89;;;9.09;83.31
61488;BME280;47351;53.326;-6.298;2023-04-10T03:52:38;100151.79;;;9.04;83.41
61488;BME280;47351;53.326;-6.298;2023-04-10T03:55:49;100144.00;;;8.98;83.51
61488;BME280;47351;53.326;-6.298;2023-04-10T03:58:53;100148.83;;;8.93;83.48
61488;BME280;47351;53.326;-6.298;2023-04-10T04:02:04;100148.83;;;8.88;83.46
61488;BME280;47351;53.326;-6.298;2023-04-10T04:05:09;100149.28;;;8.84;83.54
61488;BME280;47351;53.326;-6.298;2023-04-10T04:08:23;100142.45;;;8.79;83.57
61488;BME280;47351;53.326;-6.298;2023-04-10T04:11:32;100137.21;;;8.75;83.63
61488;BME280;47351;53.326;-6.298;2023-04-10T04:14:53;100130.86;;;8.71;83.60
61488;BME280;47351;53.326;-6.298;2023-04-10T04:18:04;100130.58;;;8.68;83.76
61488;BME280;47351;53.326;-6.298;2023-04-10T04:21:14;100127.59;;;8.66;83.77
61488;BME280;47351;53.326;-6.298;2023-04-10T04:24:44;100125.65;;;8.63;83.77
61488;BME280;47351;53.326;-6.298;2023-04-10T04:27:54;100125.00;;;8.59;83.83
61488;BME280;47351;53.326;-6.298;2023-04-10T04:31:15;100122.77;;;8.55;83.90
61488;BME280;47351;53.326;-6.298;2023-04-10T04:34:44;100123.79;;;8.50;83.95
61488;BME280;47351;53.326;-6.298;2023-04-10T04:38:02;100119.02;;;8.45;84.08
61488;BME280;47351;53.326;-6.298;2023-04-10T04:41:11;100118.40;;;8.40;84.08
61488;BME280;47351;53.326;-6.298;2023-04-10T04:44:22;100118.99;;;8.36;84.23
61488;BME280;47351;53.326;-6.298;2023-04-10T04:47:39;100115.59;;;8.34;84.34
61488;BME280;47351;53.326;-6.298;2023-04-10T04:50:59;100112.33;;;8.33;84.43
61488;BME280;47351;53.326;-6.298;2023-04-10T04:54:08;100106.97;;;8.32;84.42
61488;BME280;47351;53.326;-6.298;2023-04-10T04:57:21;100100.39;;;8.31;84.59
61488;BME280;47351;53.326;-6.298;2023-04-10T05:00:45;100099.09;;;8.32;84.57
61488;BME280;47351;53.326;-6.298;2023-04-10T05:04:02;100096.69;;;8.33;84.62
61488;BME280;47351;53.326;-6.298;2023-04-10T05:07:13;100094.90;;;8.33;84.66
61488;BME280;47351;53.326;-6.298;2023-04-10T05:10:24;100091.70;;;8.33;84.57
61488;BME280;47351;53.326;-6.298;2023-04-10T05:13:42;100086.09;;;8.32;84.34
61488;BME280;47351;53.326;-6.298;2023-04-10T05:16:54;100088.21;;;8.31;84.21
61488;BME280;47351;53.326;-6.298;2023-04-10T05:20:04;100087.83;;;8.28;84.14
61488;BME280;47351;53.326;-6.298;2023-04-10T05:23:16;100086.11;;;8.24;84.04
61488;BME280;47351;53.326;-6.298;2023-04-10T05:26:26;100085.61;;;8.20;84.04
61488;BME280;47351;53.326;-6.298;2023-04-10T05:29:49;100093.05;;;8.17;84.11
61488;BME280;47351;53.326;-6.298;2023-04-10T05:33:00;100095.88;;;8.17;84.06
61488;BME280;47351;53.326;-6.298;2023-04-10T05:36:11;100091.67;;;8.18;84.20
61488;BME280;47351;53.326;-6.298;2023-04-10T05:39:22;100089.43;;;8.22;84.24
61488;BME280;47351;53.326;-6.298;2023-04-10T05:42:32;100088.67;;;8.30;84.29
61488;BME280;47351;53.326;-6.298;2023-04-10T05:45:46;100089.23;;;8.35;84.16
61488;BME280;47351;53.326;-6.298;2023-04-10T05:48:57;100090.95;;;8.41;84.08
61488;BME280;47351;53.326;-6.298;2023-04-10T05:52:10;100092.69;;;8.46;84.15
61488;BME280;47351;53.326;-6.298;2023-04-10T05:55:19;100095.55;;;8.51;83.98
61488;BME280;47351;53.326;-6.298;2023-04-10T05:58:57;100098.44;;;8.56;83.92
61488;BME280;47351;53.326;-6.298;2023-04-10T06:02:06;100101.08;;;8.60;83.64
61488;BME280;47351;53.326;-6.298;2023-04-10T06:05:54;100105.88;;;8.63;83.36
61488;BME280;47351;53.326;-6.298;2023-04-10T06:08:59;100106.72;;;8.65;83.17
61488;BME280;47351;53.326;-6.298;2023-04-10T06:12:10;100108.16;;;8.68;83.01
61488;BME280;47351;53.326;-6.298;2023-04-10T06:15:09;100104.23;;;8.72;82.76
61488;BME280;47351;53.326;-6.298;2023-04-10T06:18:21;100103.54;;;8.78;82.71
61488;BME280;47351;53.326;-6.298;2023-04-10T06:21:31;100097.88;;;8.85;82.49
61488;BME280;47351;53.326;-6.298;2023-04-10T06:24:35;100095.33;;;8.91;82.34
61488;BME280;47351;53.326;-6.298;2023-04-10T06:27:45;100095.34;;;8.97;82.06
61488;BME280;47351;53.326;-6.298;2023-04-10T06:30:48;100097.57;;;9.02;81.91
61488;BME280;47351;53.326;-6.298;2023-04-10T06:33:59;100101.41;;;9.06;81.82
61488;BME280;47351;53.326;-6.298;2023-04-10T06:37:10;100106.98;;;9.08;81.77
61488;BME280;47351;53.326;-6.298;2023-04-10T06:40:16;100110.45;;;9.11;81.74
61488;BME280;47351;53.326;-6.298;2023-04-10T06:43:21;100113.61;;;9.15;81.75
61488;BME280;47351;53.326;-6.298;2023-04-10T06:46:32;100120.09;;;9.17;81.77
61488;BME280;47351;53.326;-6.298;2023-04-10T06:49:28;100122.30;;;9.18;81.65
61488;BME280;47351;53.326;-6.298;2023-04-10T06:52:39;100127.96;;;9.17;81.67
61488;BME280;47351;53.326;-6.298;2023-04-10T06:55:40;100127.63;;;9.12;81.64
61488;BME280;47351;53.326;-6.298;2023-04-10T06:58:42;100121.27;;;9.06;81.66
61488;BME280;47351;53.326;-6.298;2023-04-10T07:01:47;100121.48;;;8.99;81.59
61488;BME280;47351;53.326;-6.298;2023-04-10T07:05:01;100121.79;;;8.91;81.61
61488;BME280;47351;53.326;-6.298;2023-04-10T07:08:14;100118.36;;;8.83;81.58
61488;BME280;47351;53.326;-6.298;2023-04-10T07:11:25;100122.06;;;8.75;81.66
61488;BME280;47351;53.326;-6.298;2023-04-10T07:14:39;100122.08;;;8.68;81.64
61488;BME280;47351;53.326;-6.298;2023-04-10T07:17:50;100122.40;;;8.62;81.58
61488;BME280;47351;53.326;-6.298;2023-04-10T07:21:01;100123.48;;;8.56;81.77
61488;BME280;47351;53.326;-6.298;2023-04-10T07:24:12;100121.34;;;8.50;81.52
61488;BME280;47351;53.326;-6.298;2023-04-10T07:27:13;100122.17;;;8.42;81.38
61488;BME280;47351;53.326;-6.298;2023-04-10T07:30:25;100124.25;;;8.31;81.43
61488;BME280;47351;53.326;-6.298;2023-04-10T07:33:36;100125.64;;;8.25;81.67
61488;BME280;47351;53.326;-6.298;2023-04-10T07:36:47;100124.96;;;8.16;81.99
61488;BME280;47351;53.326;-6.298;2023-04-10T07:39:58;100122.09;;;8.06;82.22
61488;BME280;47351;53.326;-6.298;2023-04-10T07:43:09;100113.80;;;7.96;82.45
61488;BME280;47351;53.326;-6.298;2023-04-10T07:46:27;100119.13;;;7.86;82.70
61488;BME280;47351;53.326;-6.298;2023-04-10T07:49:39;100120.59;;;7.73;83.02
61488;BME280;47351;53.326;-6.298;2023-04-10T07:52:40;100118.42;;;7.65;83.22
61488;BME280;47351;53.326;-6.298;2023-04-10T07:55:51;100117.42;;;7.57;83.42
61488;BME280;47351;53.326;-6.298;2023-04-10T07:59:02;100118.38;;;7.53;83.82
61488;BME280;47351;53.326;-6.298;2023-04-10T08:02:13;100111.52;;;7.52;84.30
61488;BME280;47351;53.326;-6.298;2023-04-10T08:05:25;100113.73;;;7.53;84.70
61488;BME280;47351;53.326;-6.298;2023-04-10T08:08:36;100116.97;;;7.54;85.05
61488;BME280;47351;53.326;-6.298;2023-04-10T08:11:47;100116.99;;;7.58;85.40
61488;BME280;47351;53.326;-6.298;2023-04-10T08:14:59;100109.89;;;7.61;85.57
61488;BME280;47351;53.326;-6.298;2023-04-10T08:18:10;100106.66;;;7.65;85.48
61488;BME280;47351;53.326;-6.298;2023-04-10T08:21:21;100103.71;;;7.68;85.47
61488;BME280;47351;53.326;-6.298;2023-04-10T08:24:32;100101.12;;;7.69;85.47
61488;BME280;47351;53.326;-6.298;2023-04-10T08:27:44;100100.23;;;7.71;85.52
61488;BME280;47351;53.326;-6.298;2023-04-10T08:30:55;100097.06;;;7.72;85.37
61488;BME280;47351;53.326;-6.298;2023-04-10T08:34:06;100096.94;;;7.77;85.27
61488;BME280;47351;53.326;-6.298;2023-04-10T08:37:18;100098.44;;;7.83;85.23
61488;BME280;47351;53.326;-6.298;2023-04-10T08:40:30;100095.80;;;7.84;85.34
61488;BME280;47351;53.326;-6.298;2023-04-10T08:43:40;100094.28;;;7.87;85.35
61488;BME280;47351;53.326;-6.298;2023-04-10T08:46:51;100094.19;;;7.93;85.26
61488;BME280;47351;53.326;-6.298;2023-04-10T08:50:05;100096.19;;;7.98;85.21
61488;BME280;47351;53.326;-6.298;2023-04-10T08:53:16;100092.50;;;8.06;85.21
61488;BME280;47351;53.326;-6.298;2023-04-10T08:56:30;100087.86;;;8.22;85.07
61488;BME280;47351;53.326;-6.298;2023-04-10T08:59:42;100087.48;;;8.35;84.81
61488;BME280;47351;53.326;-6.298;2023-04-10T09:02:53;100082.54;;;8.48;84.13
61488;BME280;47351;53.326;-6.298;2023-04-10T09:06:06;100074.58;;;8.71;83.50
61488;BME280;47351;53.326;-6.298;2023-04-10T09:09:18;100073.36;;;9.25;82.77
61488;BME280;47351;53.326;-6.298;2023-04-10T09:12:34;100064.40;;;11.45;79.93
61488;BME280;47351;53.326;-6.298;2023-04-10T09:15:35;100053.73;;;13.48;74.33
61488;BME280;47351;53.326;-6.298;2023-04-10T09:18:45;100052.27;;;14.14;72.67
61488;BME280;47351;53.326;-6.298;2023-04-10T09:21:36;100054.03;;;14.18;70.18
61488;BME280;47351;53.326;-6.298;2023-04-10T09:24:29;100050.93;;;13.99;69.48
61488;BME280;47351;53.326;-6.298;2023-04-10T09:27:29;100047.46;;;14.39;68.41
61488;BME280;47351;53.326;-6.298;2023-04-10T09:30:31;100044.20;;;14.69;67.21
61488;BME280;47351;53.326;-6.298;2023-04-10T09:33:25;100041.35;;;14.00;67.94
61488;BME280;47351;53.326;-6.298;2023-04-10T09:36:17;100040.56;;;13.41;68.84
61488;BME280;47351;53.326;-6.298;2023-04-10T09:39:11;100038.65;;;13.12;69.05
61488;BME280;47351;53.326;-6.298;2023-04-10T09:42:02;100033.82;;;13.90;67.76
61488;BME280;47351;53.326;-6.298;2023-04-10T09:44:56;100024.02;;;15.87;64.35
61488;BME280;47351;53.326;-6.298;2023-04-10T09:48:01;100017.92;;;16.39;61.73
61488;BME280;47351;53.326;-6.298;2023-04-10T09:50:52;100023.81;;;17.10;59.53
61488;BME280;47351;53.326;-6.298;2023-04-10T09:53:48;100021.52;;;17.90;58.14
61488;BME280;47351;53.326;-6.298;2023-04-10T09:56:38;100020.23;;;18.81;56.85
61488;BME280;47351;53.326;-6.298;2023-04-10T09:59:46;100016.58;;;18.52;55.53
61488;BME280;47351;53.326;-6.298;2023-04-10T10:02:37;100020.29;;;18.77;53.75
61488;BME280;47351;53.326;-6.298;2023-04-10T10:05:29;100019.58;;;18.11;54.03
61488;BME280;47351;53.326;-6.298;2023-04-10T10:08:20;100023.52;;;17.29;55.29
61488;BME280;47351;53.326;-6.298;2023-04-10T10:11:12;100030.52;;;16.09;56.16
61488;BME280;47351;53.326;-6.298;2023-04-10T10:14:05;100031.20;;;14.90;57.88
61488;BME280;47351;53.326;-6.298;2023-04-10T10:17:04;100027.83;;;14.21;59.42
61488;BME280;47351;53.326;-6.298;2023-04-10T10:20:12;100027.60;;;14.04;60.24
61488;BME280;47351;53.326;-6.298;2023-04-10T10:23:08;100019.55;;;14.07;61.08
61488;BME280;47351;53.326;-6.298;2023-04-10T10:25:59;100017.17;;;14.26;61.41
61488;BME280;47351;53.326;-6.298;2023-04-10T10:28:51;100008.05;;;15.91;59.06
61488;BME280;47351;53.326;-6.298;2023-04-10T10:31:52;100001.69;;;18.66;54.78
61488;BME280;47351;53.326;-6.298;2023-04-10T10:34:52;99990.61;;;19.33;52.37
61488;BME280;47351;53.326;-6.298;2023-04-10T10:37:50;99981.75;;;20.89;50.27
61488;BME280;47351;53.326;-6.298;2023-04-10T10:40:41;99980.47;;;21.83;48.81
61488;BME280;47351;53.326;-6.298;2023-04-10T10:43:41;99975.89;;;22.32;47.08
61488;BME280;47351;53.326;-6.298;2023-04-10T10:46:39;99977.22;;;21.15;46.76
61488;BME280;47351;53.326;-6.298;2023-04-10T10:52:49;99983.08;;;18.26;50.53
61488;BME280;47351;53.326;-6.298;2023-04-10T10:55:45;99989.08;;;17.16;51.81
61488;BME280;47351;53.326;-6.298;2023-04-10T10:58:48;99987.90;;;16.19;52.36
61488;BME280;47351;53.326;-6.298;2023-04-10T11:01:55;99989.21;;;16.38;52.19
61488;BME280;47351;53.326;-6.298;2023-04-10T11:05:02;99989.02;;;16.07;53.09
61488;BME280;47351;53.326;-6.298;2023-04-10T11:08:13;99989.50;;;15.77;53.45
61488;BME280;47351;53.326;-6.298;2023-04-10T11:11:04;99982.77;;;15.59;54.10
61488;BME280;47351;53.326;-6.298;2023-04-10T11:14:13;99977.90;;;16.14;53.20
61488;BME280;47351;53.326;-6.298;2023-04-10T11:17:09;99979.27;;;15.68;53.10
61488;BME280;47351;53.326;-6.298;2023-04-10T11:20:03;99985.79;;;14.94;54.75
61488;BME280;47351;53.326;-6.298;2023-04-10T11:23:08;99975.92;;;15.49;54.35
61488;BME280;47351;53.326;-6.298;2023-04-10T11:26:10;99970.83;;;16.42;52.66
61488;BME280;47351;53.326;-6.298;2023-04-10T11:29:01;99970.16;;;15.94;53.32
61488;BME280;47351;53.326;-6.298;2023-04-10T11:31:56;99965.27;;;15.86;53.54
61488;BME280;47351;53.326;-6.298;2023-04-10T11:34:50;99957.41;;;16.84;52.36
61488;BME280;47351;53.326;-6.298;2023-04-10T11:37:41;99965.56;;;16.74;52.34
61488;BME280;47351;53.326;-6.298;2023-04-10T11:40:32;99982.30;;;15.66;53.04
61488;BME280;47351;53.326;-6.298;2023-04-10T11:43:27;100006.30;;;14.45;55.10
61488;BME280;47351;53.326;-6.298;2023-04-10T11:46:28;100015.71;;;13.20;57.20
61488;BME280;47351;53.326;-6.298;2023-04-10T11:49:29;100019.16;;;12.08;60.00
61488;BME280;47351;53.326;-6.298;2023-04-10T11:52:29;100042.17;;;11.20;62.80
61488;BME280;47351;53.326;-6.298;2023-04-10T11:55:40;100043.38;;;10.51;65.14
61488;BME280;47351;53.326;-6.298;2023-04-10T11:58:51;100046.39;;;9.97;67.15
61488;BME280;47351;53.326;-6.298;2023-04-10T12:02:04;100047.20;;;9.54;68.71
61488;BME280;47351;53.326;-6.298;2023-04-10T12:04:57;100056.45;;;9.33;70.17
61488;BME280;47351;53.326;-6.298;2023-04-10T12:07:49;100056.83;;;9.67;70.44
61488;BME280;47351;53.326;-6.298;2023-04-10T12:10:45;100067.86;;;9.77;70.75
61488;BME280;47351;53.326;-6.298;2023-04-10T12:13:50;100071.74;;;9.46;71.63
61488;BME280;47351;53.326;-6.298;2023-04-10T12:17:04;100071.77;;;9.35;72.12
61488;BME280;47351;53.326;-6.298;2023-04-10T12:20:01;100069.14;;;9.73;71.74
61488;BME280;47351;53.326;-6.298;2023-04-10T12:23:04;100065.06;;;10.02;71.58
61488;BME280;47351;53.326;-6.298;2023-04-10T12:26:10;100061.26;;;10.07;71.98
61488;BME280;47351;53.326;-6.298;2023-04-10T12:29:20;100054.75;;;10.09;71.95
61488;BME280;47351;53.326;-6.298;2023-04-10T12:32:29;100060.69;;;10.80;71.34
61488;BME280;47351;53.326;-6.298;2023-04-10T12:35:38;100052.52;;;12.04;68.54
61488;BME280;47351;53.326;-6.298;2023-04-10T12:38:40;100049.90;;;12.22;67.15
61488;BME280;47351;53.326;-6.298;2023-04-10T12:41:51;100048.30;;;11.99;67.39
61488;BME280;47351;53.326;-6.298;2023-04-10T12:45:02;100049.91;;;12.48;67.00
61488;BME280;47351;53.326;-6.298;2023-04-10T12:47:55;100042.66;;;13.81;64.06
61488;BME280;47351;53.326;-6.298;2023-04-10T12:50:51;100033.91;;;14.94;61.75
61488;BME280;47351;53.326;-6.298;2023-04-10T12:53:45;100012.97;;;17.03;57.65
61488;BME280;47351;53.326;-6.298;2023-04-10T12:56:42;100009.12;;;19.06;52.62
61488;BME280;47351;53.326;-6.298;2023-04-10T12:59:38;100003.70;;;20.17;48.83
61488;BME280;47351;53.326;-6.298;2023-04-10T13:02:32;100009.09;;;21.18;46.36
61488;BME280;47351;53.326;-6.298;2023-04-10T13:05:23;100006.55;;;22.45;45.02
61488;BME280;47351;53.326;-6.298;2023-04-10T13:08:14;100007.30;;;23.52;42.68
61488;BME280;47351;53.326;-6.298;2023-04-10T13:11:05;100005.77;;;23.59;40.25
61488;BME280;47351;53.326;-6.298;2023-04-10T13:13:56;100012.41;;;23.68;38.58
61488;BME280;47351;53.326;-6.298;2023-04-10T13:16:47;100005.48;;;23.83;39.30
61488;BME280;47351;53.326;-6.298;2023-04-10T13:19:38;100005.77;;;24.41;38.71
61488;BME280;47351;53.326;-6.298;2023-04-10T13:22:31;100008.44;;;23.90;38.20
61488;BME280;47351;53.326;-6.298;2023-04-10T13:25:22;100014.20;;;22.42;38.97
61488;BME280;47351;53.326;-6.298;2023-04-10T13:28:15;100027.34;;;21.67;38.91
61488;BME280;47351;53.326;-6.298;2023-04-10T13:31:07;100023.71;;;20.67;39.89
61488;BME280;47351;53.326;-6.298;2023-04-10T13:33:57;100019.33;;;20.67;40.52
61488;BME280;47351;53.326;-6.298;2023-04-10T13:36:48;100020.76;;;21.01;40.30
61488;BME280;47351;53.326;-6.298;2023-04-10T13:39:39;100018.16;;;21.22;40.51
61488;BME280;47351;53.326;-6.298;2023-04-10T13:42:31;100021.61;;;20.96;39.79
61488;BME280;47351;53.326;-6.298;2023-04-10T13:45:24;100018.98;;;20.66;38.80
61488;BME280;47351;53.326;-6.298;2023-04-10T13:48:15;100006.16;;;21.60;37.95
61488;BME280;47351;53.326;-6.298;2023-04-10T13:51:18;100007.73;;;23.01;36.87
61488;BME280;47351;53.326;-6.298;2023-04-10T13:54:08;100011.86;;;22.43;35.10
61488;BME280;47351;53.326;-6.298;2023-04-10T13:56:59;100018.45;;;20.28;37.29
61488;BME280;47351;53.326;-6.298;2023-04-10T13:59:51;100026.33;;;19.10;38.87
61488;BME280;47351;53.326;-6.298;2023-04-10T14:02:42;100025.99;;;18.55;39.94
61488;BME280;47351;53.326;-6.298;2023-04-10T14:05:33;100031.86;;;19.73;39.03
61488;BME280;47351;53.326;-6.298;2023-04-10T14:08:24;100042.48;;;19.59;39.01
61488;BME280;47351;53.326;-6.298;2023-04-10T14:11:15;100059.61;;;18.10;40.37
61488;BME280;47351;53.326;-6.298;2023-04-10T14:14:05;100079.17;;;16.30;42.79
61488;BME280;47351;53.326;-6.298;2023-04-10T14:16:56;100088.65;;;14.81;46.07
61488;BME280;47351;53.326;-6.298;2023-04-10T14:19:48;100103.70;;;13.58;49.37
61488;BME280;47351;53.326;-6.298;2023-04-10T14:22:40;100113.77;;;12.66;52.71
61488;BME280;47351;53.326;-6.298;2023-04-10T14:25:34;100121.27;;;12.16;54.93
61488;BME280;47351;53.326;-6.298;2023-04-10T14:28:25;100109.66;;;12.77;56.14
61488;BME280;47351;53.326;-6.298;2023-04-10T14:31:18;100102.52;;;14.49;54.70
61488;BME280;47351;53.326;-6.298;2023-04-10T14:34:09;100098.08;;;15.44;52.93
61488;BME280;47351;53.326;-6.298;2023-04-10T14:36:59;100094.83;;;16.09;52.00
61488;BME280;47351;53.326;-6.298;2023-04-10T14:39:50;100094.55;;;16.29;51.13
61488;BME280;47351;53.326;-6.298;2023-04-10T14:42:41;100093.45;;;16.38;49.39
61488;BME280;47351;53.326;-6.298;2023-04-10T14:45:31;100091.86;;;16.27;49.13
61488;BME280;47351;53.326;-6.298;2023-04-10T14:48:22;100098.92;;;15.69;49.07
61488;BME280;47351;53.326;-6.298;2023-04-10T14:51:13;100095.44;;;15.67;49.76
61488;BME280;47351;53.326;-6.298;2023-04-10T14:54:04;100093.45;;;15.59;50.41
61488;BME280;47351;53.326;-6.298;2023-04-10T14:56:56;100090.95;;;15.75;49.79
61488;BME280;47351;53.326;-6.298;2023-04-10T14:59:47;100087.00;;;15.60;49.48
61488;BME280;47351;53.326;-6.298;2023-04-10T15:02:41;100086.90;;;14.92;49.99
61488;BME280;47351;53.326;-6.298;2023-04-10T15:05:32;100091.45;;;14.18;50.71
61488;BME280;47351;53.326;-6.298;2023-04-10T15:08:22;100093.35;;;13.47;51.73
61488;BME280;47351;53.326;-6.298;2023-04-10T15:11:16;100088.26;;;12.93;53.19
61488;BME280;47351;53.326;-6.298;2023-04-10T15:14:06;100078.69;;;13.07;54.28
61488;BME280;47351;53.326;-6.298;2023-04-10T15:16:57;100077.21;;;13.40;54.34
61488;BME280;47351;53.326;-6.298;2023-04-10T15:19:48;100071.10;;;13.50;53.88
61488;BME280;47351;53.326;-6.298;2023-04-10T15:22:39;100068.89;;;13.44;53.85
61488;BME280;47351;53.326;-6.298;2023-04-10T15:25:32;100070.56;;;13.73;53.75
61488;BME280;47351;53.326;-6.298;2023-04-10T15:28:23;100069.94;;;14.06;53.50
61488;BME280;47351;53.326;-6.298;2023-04-10T15:31:16;100066.88;;;14.12;53.00
61488;BME280;47351;53.326;-6.298;2023-04-10T15:34:11;100072.14;;;13.92;52.07
61488;BME280;47351;53.326;-6.298;2023-04-10T15:37:02;100076.63;;;13.45;52.85
61488;BME280;47351;53.326;-6.298;2023-04-10T15:39:55;100081.71;;;13.00;53.79
61488;BME280;47351;53.326;-6.298;2023-04-10T15:42:48;100089.00;;;12.69;54.37
61488;BME280;47351;53.326;-6.298;2023-04-10T15:45:47;100090.20;;;12.63;54.97
61488;BME280;47351;53.326;-6.298;2023-04-10T15:48:41;100092.71;;;12.76;55.50
61488;BME280;47351;53.326;-6.298;2023-04-10T15:51:36;100094.85;;;12.82;55.18
61488;BME280;47351;53.326;-6.298;2023-04-10T15:54:27;100111.89;;;12.60;54.60
61488;BME280;47351;53.326;-6.298;2023-04-10T15:57:22;100123.62;;;12.23;54.05
61488;BME280;47351;53.326;-6.298;2023-04-10T16:00:33;100154.79;;;11.89;54.82
61488;BME280;47351;53.326;-6.298;2023-04-10T16:03:29;100172.70;;;11.53;55.54